Station History

Weather Underground - logo

Station Historical Data
Daily Summary for Nil La, TWC- Units:  English    Metric   Both
« Previous Day
Next Day »
Daily Weekly Monthly Yearly Custom
  High: Low: Average:
Temperature: 90.2 °F 55.8 °F 70.1 °F
Dew Point: 57.1 °F 49.2 °F 52.2 °F
Humidity: 82 % 28 % 57 %
Wind Speed: 4 mph 0 mph 0.7 mph
Wind Gust: 1.5 mph - -
Wind:- - SW
Pressure: 29.87 in 29.77 in -
Precipitation: 0 in    
Historical Graphs
 
 
Tabular Data for Nil La, TWC-
Time Temperature Dew Point Pressure Wind Wind Speed Wind Gust Humidity Rainfall Rate (Hourly)
00:04 61.7 °F 53.3 °F 29.77 in Calm     74 % 0 in
00:09 61.4 °F 53.8 °F 29.77 in Calm     76 % 0 in
00:14 61.3 °F 53.7 °F 29.77 in Calm     76 % 0 in
00:19 61.1 °F 53.5 °F 29.77 in Calm     76 % 0 in
00:24 60.8 °F 53.2 °F 29.77 in Calm     76 % 0 in
00:29 60.7 °F 53.1 °F 29.78 in Calm     76 % 0 in
00:35 60.4 °F 52.8 °F 29.78 in Calm     76 % 0 in
00:39 60.1 °F 52.9 °F 29.78 in Calm     77 % 0 in
00:44 59.9 °F 52.3 °F 29.78 in Calm     76 % 0 in
00:49 59.7 °F 52.5 °F 29.78 in Calm     77 % 0 in
00:55 59.7 °F 52.1 °F 29.78 in Calm     76 % 0 in
00:59 59.8 °F 52.6 °F 29.78 in Calm     77 % 0 in
01:04 59.9 °F 52.7 °F 29.78 in Calm     77 % 0 in
01:09 59.7 °F 52.1 °F 29.78 in Calm     76 % 0 in
01:14 59.5 °F 51.9 °F 29.78 in Calm     76 % 0 in
01:20 59.5 °F 51.9 °F 29.78 in Calm     76 % 0 in
01:24 59.5 °F 51.6 °F 29.78 in Calm     75 % 0 in
01:29 59.5 °F 51.6 °F 29.78 in Calm     75 % 0 in
01:34 59.4 °F 51.1 °F 29.79 in Calm     74 % 0 in
01:39 59.3 °F 51 °F 29.79 in Calm     74 % 0 in
01:44 59.2 °F 50.9 °F 29.79 in Calm     74 % 0 in
01:49 59.5 °F 51.2 °F 29.79 in Calm     74 % 0 in
01:55 59.5 °F 50.8 °F 29.79 in Calm     73 % 0 in
01:59 59.5 °F 50.8 °F 29.79 in Calm     73 % 0 in
02:04 59.6 °F 50.9 °F 29.78 in Calm     73 % 0 in
02:09 59.7 °F 50.7 °F 29.78 in Calm     72 % 0 in
02:14 59.8 °F 50.8 °F 29.78 in Calm     72 % 0 in
02:19 59.7 °F 50.7 °F 29.79 in Calm     72 % 0 in
02:25 59.7 °F 50.7 °F 29.78 in Calm     72 % 0 in
02:29 59.7 °F 50.7 °F 29.78 in Calm     72 % 0 in
02:34 59.7 °F 50.7 °F 29.79 in Calm     72 % 0 in
02:39 59.5 °F 50.8 °F 29.79 in Calm     73 % 0 in
02:44 59.2 °F 50.5 °F 29.78 in Calm     73 % 0 in
02:49 59 °F 50.7 °F 29.78 in Calm     74 % 0 in
02:54 58.7 °F 50.4 °F 29.78 in Calm     74 % 0 in
02:59 58.4 °F 50.5 °F 29.78 in Calm     75 % 0 in
03:04 58.1 °F 50.2 °F 29.79 in Calm     75 % 0 in
03:09 57.9 °F 50 °F 29.79 in Calm     75 % 0 in
03:14 57.8 °F 49.9 °F 29.78 in Calm     75 % 0 in
03:19 57.7 °F 50.2 °F 29.78 in Calm     76 % 0 in
03:24 57.6 °F 50.1 °F 29.79 in Calm     76 % 0 in
03:30 57.5 °F 50 °F 29.79 in Calm     76 % 0 in
03:34 57.3 °F 49.8 °F 29.79 in Calm     76 % 0 in
03:39 57.3 °F 49.8 °F 29.79 in Calm     76 % 0 in
03:44 57.6 °F 49.7 °F 29.79 in Calm     75 % 0 in
03:49 57.8 °F 49.6 °F 29.79 in Calm     74 % 0 in
03:54 58 °F 49.4 °F 29.79 in Calm     73 % 0 in
03:59 58.4 °F 49.8 °F 29.79 in Calm     73 % 0 in
04:04 58.6 °F 50 °F 29.79 in SE 1.2 mph   73 % 0 in
04:09 58.6 °F 49.6 °F 29.79 in Calm     72 % 0 in
04:14 58.5 °F 49.5 °F 29.79 in Calm     72 % 0 in
04:19 58.3 °F 50.4 °F 29.79 in Calm     75 % 0 in
04:24 57.9 °F 50.7 °F 29.79 in Calm     77 % 0 in
04:29 57.6 °F 50.1 °F 29.79 in Calm     76 % 0 in
04:35 57.5 °F 50.3 °F 29.79 in Calm     77 % 0 in
04:39 57.2 °F 50.1 °F 29.79 in Calm     77 % 0 in
04:44 57.2 °F 50.4 °F 29.79 in Calm     78 % 0 in
04:49 57.2 °F 50.4 °F 29.80 in Calm     78 % 0 in
04:55 57.1 °F 50.6 °F 29.80 in Calm     79 % 0 in
04:59 57 °F 50.5 °F 29.80 in Calm     79 % 0 in
05:04 56.9 °F 50.5 °F 29.80 in Calm     79 % 0 in
05:09 56.7 °F 50.3 °F 29.80 in Calm     79 % 0 in
05:14 56.6 °F 50.5 °F 29.80 in Calm     80 % 0 in
05:19 56.4 °F 50 °F 29.80 in Calm     79 % 0 in
05:24 56.7 °F 49.6 °F 29.80 in Calm     77 % 0 in
05:29 57 °F 49.9 °F 29.80 in Calm     77 % 0 in
05:34 57.1 °F 49.2 °F 29.80 in Calm     75 % 0 in
05:39 57.2 °F 49.7 °F 29.80 in Calm     76 % 0 in
05:44 57.1 °F 50 °F 29.80 in Calm     77 % 0 in
05:49 56.9 °F 50.1 °F 29.80 in Calm     78 % 0 in
05:55 56.8 °F 50 °F 29.80 in Calm     78 % 0 in
05:59 56.8 °F 50 °F 29.80 in Calm     78 % 0 in
06:04 57 °F 50.9 °F 29.80 in Calm     80 % 0 in
06:09 56.9 °F 50.1 °F 29.81 in Calm     78 % 0 in
06:14 56.7 °F 49.9 °F 29.81 in Calm     78 % 0 in
06:19 56.8 °F 50 °F 29.81 in Calm     78 % 0 in
06:24 56.8 °F 50 °F 29.81 in Calm     78 % 0 in
06:29 57 °F 50.5 °F 29.82 in Calm     79 % 0 in
06:34 56.8 °F 50 °F 29.82 in Calm     78 % 0 in
06:39 56.6 °F 49.8 °F 29.82 in Calm     78 % 0 in
06:44 56.3 °F 49.9 °F 29.82 in Calm     79 % 0 in
06:49 56 °F 49.9 °F 29.82 in Calm     80 % 0 in
06:54 55.8 °F 50.4 °F 29.82 in Calm     82 % 0 in
06:59 55.8 °F 50.4 °F 29.83 in Calm     82 % 0 in
07:05 55.8 °F 50.4 °F 29.83 in Calm     82 % 0 in
07:10 55.9 °F 50.5 °F 29.83 in Calm     82 % 0 in
07:14 56 °F 50.6 °F 29.84 in Calm     82 % 0 in
07:19 56.2 °F 50.8 °F 29.84 in Calm     82 % 0 in
07:24 56.5 °F 51.1 °F 29.84 in Calm     82 % 0 in
07:29 56.8 °F 51 °F 29.84 in Calm     81 % 0 in
07:34 57.7 °F 51.2 °F 29.84 in Calm     79 % 0 in
07:39 58.7 °F 51.5 °F 29.84 in Calm     77 % 0 in
07:44 59.4 °F 51.5 °F 29.84 in Calm     75 % 0 in
07:49 60.1 °F 51.8 °F 29.85 in Calm     74 % 0 in
07:55 61.4 °F 52.3 °F 29.85 in Calm     72 % 0 in
07:59 62.6 °F 52.3 °F 29.85 in Calm     69 % 0 in
08:04 64.4 °F 52.8 °F 29.85 in Calm     66 % 0 in
08:10 66.4 °F 54.3 °F 29.85 in Calm     65 % 0 in
08:14 67.9 °F 54 °F 29.86 in Calm     61 % 0 in
08:19 68.9 °F 54.4 °F 29.86 in Calm     60 % 0 in
08:24 69.9 °F 54 °F 29.86 in Calm     57 % 0 in
08:29 70.6 °F 54.1 °F 29.86 in Calm     56 % 0 in
08:34 71.6 °F 54.1 °F 29.86 in Calm     54 % 0 in
08:39 72.9 °F 54.8 °F 29.86 in Calm     53 % 0 in
08:44 73.8 °F 54 °F 29.86 in NNW 1 mph   50 % 0 in
08:49 73.7 °F 53.3 °F 29.86 in SSW 1 mph 0.1 mph 49 % 0 in
08:54 73.7 °F 52.8 °F 29.86 in SSW 1.2 mph   48 % 0 in
08:59 73.9 °F 52.4 °F 29.86 in SSW 1.2 mph   47 % 0 in
09:05 74 °F 53.1 °F 29.86 in Calm     48 % 0 in
09:09 74.1 °F 52.6 °F 29.86 in NNW 1.2 mph   47 % 0 in
09:15 74.2 °F 52.1 °F 29.86 in Calm     46 % 0 in
09:19 74.6 °F 51.9 °F 29.86 in SE 1.2 mph 0.3 mph 45 % 0 in
09:25 75.1 °F 52.9 °F 29.86 in SSW 1.2 mph 0.1 mph 46 % 0 in
09:29 75.3 °F 52.5 °F 29.86 in SE 1.2 mph 0.1 mph 45 % 0 in
09:34 75.5 °F 53.3 °F 29.86 in ESE 1.2 mph 0.1 mph 46 % 0 in
09:39 75.8 °F 52.9 °F 29.86 in Calm     45 % 0 in
09:44 76.3 °F 53.4 °F 29.86 in SE 1.2 mph   45 % 0 in
09:49 76.4 °F 53.5 °F 29.87 in Calm   0.1 mph 45 % 0 in
09:54 76.8 °F 53.2 °F 29.87 in Calm     44 % 0 in
09:59 76.8 °F 53.2 °F 29.87 in SE 1 mph   44 % 0 in
10:04 77.1 °F 52.9 °F 29.87 in Calm     43 % 0 in
10:09 77.1 °F 54.1 °F 29.87 in SSW 1.2 mph 0.1 mph 45 % 0 in
10:14 77.5 °F 53.2 °F 29.87 in Calm     43 % 0 in
10:19 78.1 °F 54.4 °F 29.87 in SSE 1.2 mph 0.1 mph 44 % 0 in
10:24 78.6 °F 53.6 °F 29.87 in ESE 2.3 mph 0.5 mph 42 % 0 in
10:29 78.7 °F 54.3 °F 29.86 in WNW 2 mph 0.4 mph 43 % 0 in
10:34 78.5 °F 54.1 °F 29.87 in West 2 mph 0.9 mph 43 % 0 in
10:39 78.2 °F 53.2 °F 29.87 in West 1 mph 0.7 mph 42 % 0 in
10:44 78 °F 53.7 °F 29.86 in North 1.2 mph 0.1 mph 43 % 0 in
10:49 78.2 °F 53.2 °F 29.87 in North 2.3 mph 0.8 mph 42 % 0 in
10:54 78.4 °F 53.4 °F 29.86 in NNW 2.3 mph 0.1 mph 42 % 0 in
10:59 79 °F 57 °F 29.86 in West 2 mph 0.2 mph 47 % 0 in
11:04 78.9 °F 54.5 °F 29.86 in NW 1.2 mph 1 mph 43 % 0 in
11:09 79.3 °F 54.2 °F 29.86 in Calm     42 % 0 in
11:14 80 °F 55.5 °F 29.86 in NNE 1.2 mph 0.1 mph 43 % 0 in
11:19 80.3 °F 53.8 °F 29.86 in NW 1.2 mph   40 % 0 in
11:24 80.3 °F 54.5 °F 29.86 in WNW 3.5 mph 1.2 mph 41 % 0 in
11:29 80.3 °F 54.5 °F 29.86 in WNW 1.2 mph 0.3 mph 41 % 0 in
11:34 80.9 °F 54.3 °F 29.86 in West 1.2 mph 0.2 mph 40 % 0 in
11:39 81.2 °F 54.6 °F 29.86 in WSW 1.2 mph 0.3 mph 40 % 0 in
11:44 81.5 °F 54.2 °F 29.85 in NNE 3.5 mph 0.5 mph 39 % 0 in
11:49 81.9 °F 54.5 °F 29.85 in NE 1.2 mph 0.6 mph 39 % 0 in
11:55 82.6 °F 55.1 °F 29.85 in ENE 2.3 mph 0.6 mph 39 % 0 in
11:59 82.4 °F 54.2 °F 29.85 in WNW 2.3 mph 0.4 mph 38 % 0 in
12:04 82.2 °F 54.1 °F 29.85 in NW 1.2 mph 0.4 mph 38 % 0 in
12:09 82.3 °F 54.2 °F 29.85 in NW 2 mph 1.2 mph 38 % 0 in
12:14 82.6 °F 55.1 °F 29.85 in North 1.2 mph 0.1 mph 39 % 0 in
12:19 82.8 °F 53.9 °F 29.85 in North 2 mph 0.8 mph 37 % 0 in
12:24 82.9 °F 54 °F 29.84 in NE 2.3 mph 0.2 mph 37 % 0 in
12:29 83.3 °F 52.8 °F 29.84 in NNW 1.2 mph 0.2 mph 35 % 0 in
12:34 83.6 °F 55.3 °F 29.84 in NW 1 mph 0.4 mph 38 % 0 in
12:40 84 °F 54.9 °F 29.84 in NNE 1.2 mph 0.2 mph 37 % 0 in
12:44 84.4 °F 55.3 °F 29.84 in NW 1 mph 0.1 mph 37 % 0 in
12:49 84.2 °F 53.6 °F 29.84 in NNE 2.3 mph 0.3 mph 35 % 0 in
12:54 84.4 °F 53.8 °F 29.84 in NW 2.3 mph 0.3 mph 35 % 0 in
12:59 84.7 °F 54 °F 29.83 in NW 2.3 mph 0.7 mph 35 % 0 in
13:05 85 °F 55.1 °F 29.83 in NW 1.2 mph 0.7 mph 36 % 0 in
13:10 84.9 °F 52.6 °F 29.83 in WNW 1.2 mph 0.1 mph 33 % 0 in
13:14 85.1 °F 54.4 °F 29.83 in ENE 1.2 mph 0.1 mph 35 % 0 in
13:20 86.1 °F 53.6 °F 29.83 in NW 2.3 mph 0.6 mph 33 % 0 in
13:25 86.1 °F 54.5 °F 29.83 in NW 2.3 mph 1.1 mph 34 % 0 in
13:29 86.2 °F 53.7 °F 29.82 in NW 2.3 mph 0.9 mph 33 % 0 in
13:34 85.9 °F 53.5 °F 29.82 in NW 1.2 mph 0.6 mph 33 % 0 in
13:40 85.9 °F 53.5 °F 29.82 in Calm     33 % 0 in
13:45 86.5 °F 57.1 °F 29.82 in NNW 1.2 mph 0.2 mph 37 % 0 in
13:50 87.4 °F 54.8 °F 29.82 in SE 1.2 mph 0.2 mph 33 % 0 in
13:54 87.6 °F 54.9 °F 29.81 in NW 4 mph 1.2 mph 33 % 0 in
13:59 87.3 °F 53.8 °F 29.81 in WNW 1.2 mph 0.5 mph 32 % 0 in
14:04 87.5 °F 54 °F 29.81 in NW 2.3 mph 0.9 mph 32 % 0 in
14:09 87.4 °F 53.9 °F 29.81 in NW 2.3 mph 0.1 mph 32 % 0 in
14:14 87.5 °F 52.2 °F 29.81 in WNW 1.2 mph 0.6 mph 30 % 0 in
14:19 87.4 °F 52.2 °F 29.81 in East 1.2 mph 0.1 mph 30 % 0 in
14:24 87.8 °F 53.4 °F 29.81 in WNW 2 mph 0.4 mph 31 % 0 in
14:29 87.9 °F 50.7 °F 29.81 in Calm     28 % 0 in
14:34 88.4 °F 51.1 °F 29.81 in West 1.2 mph   28 % 0 in
14:40 88.6 °F 52.3 °F 29.80 in Calm     29 % 0 in
14:44 88.7 °F 53.3 °F 29.80 in North 1.2 mph 0.2 mph 30 % 0 in
14:49 89.2 °F 53.7 °F 29.80 in Calm     30 % 0 in
14:55 90 °F 53.5 °F 29.80 in NW 1.2 mph 0.1 mph 29 % 0 in
14:59 90.1 °F 52.6 °F 29.80 in ESE 1.2 mph 0.4 mph 28 % 0 in
15:04 90.2 °F 54.6 °F 29.79 in ESE 1.2 mph 0.4 mph 30 % 0 in
15:09 90 °F 53.5 °F 29.79 in NW 1.2 mph   29 % 0 in
15:14 89.6 °F 53.1 °F 29.79 in NW 2.3 mph 1 mph 29 % 0 in
15:19 89.3 °F 51.9 °F 29.79 in WNW 1.2 mph   28 % 0 in
15:24 89.5 °F 53 °F 29.79 in NE 1.2 mph   29 % 0 in
15:29 89.5 °F 52.1 °F 29.79 in SW 3.5 mph 1.5 mph 28 % 0 in
15:35 89.2 °F 52.8 °F 29.79 in WSW 1.2 mph 0.1 mph 29 % 0 in
15:39 89.8 °F 54.2 °F 29.79 in NNW 1.2 mph 0.1 mph 30 % 0 in
15:44 90.1 °F 52.6 °F 29.78 in NW 2 mph 0.3 mph 28 % 0 in
15:50 89.9 °F 52.4 °F 29.79 in NNW 1.2 mph 0.5 mph 28 % 0 in
15:54 89.5 °F 52.1 °F 29.78 in NW 1.2 mph 1.2 mph 28 % 0 in
16:00 89.3 °F 52.9 °F 29.78 in SE 1.2 mph 0.4 mph 29 % 0 in
16:04 89.6 °F 53.1 °F 29.78 in North 2 mph 0.5 mph 29 % 0 in
16:09 89.3 °F 52.9 °F 29.78 in SSW 2.3 mph 0.6 mph 29 % 0 in
Park Place, Exeter, Tulare County, California, USA
Compliments of Weather Underground - 2.25 mb